Sandford, United Kingdom
Current Conditions -  °F | °C
As of 6:20 PM on Friday 28 Nov 2014 (Local Time) from EGGD Reporting Station
Broken Clouds Broken Clouds  
Wind Chill: 10°   Ceiling: 800
Heat Index: 10°   Visibility: 4mi
Dew Point:   Wind: 16mph
Humidity: 94%   Direction: 60°ENE
Pressure: 29.62"   Gusts: NA
Location:  51.33°N, 2.83°W
Report Text: EGGD 281820Z 06014KT 7000 BKN008 10/09 Q1003
Loading
Personal Weather Stations






























Interactive Weather Map New forecast layout! Learn more

10-Day Weather Forecast

Advertisements
Track Severe Weather on mobile